sensor_id;sensor_type;location;lat;lon;timestamp;temperature;humidity
8892;DHT22;4482;54.332;10.118;2023-12-20T00:00:11;6.80;99.90
8892;DHT22;4482;54.332;10.118;2023-12-20T00:02:39;6.80;99.90
8892;DHT22;4482;54.332;10.118;2023-12-20T00:05:10;6.80;99.90
8892;DHT22;4482;54.332;10.118;2023-12-20T00:07:37;6.80;99.90
8892;DHT22;4482;54.332;10.118;2023-12-20T00:10:03;6.90;99.90
8892;DHT22;4482;54.332;10.118;2023-12-20T00:12:30;6.90;99.90
8892;DHT22;4482;54.332;10.118;2023-12-20T00:14:57;6.80;99.90
8892;DHT22;4482;54.332;10.118;2023-12-20T00:17:23;6.80;99.90
8892;DHT22;4482;54.332;10.118;2023-12-20T00:19:51;6.80;99.90
8892;DHT22;4482;54.332;10.118;2023-12-20T00:22:18;6.80;99.90
8892;DHT22;4482;54.332;10.118;2023-12-20T00:24:45;6.80;99.90
8892;DHT22;4482;54.332;10.118;2023-12-20T00:27:12;6.80;99.90
8892;DHT22;4482;54.332;10.118;2023-12-20T00:29:39;6.90;99.90
8892;DHT22;4482;54.332;10.118;2023-12-20T00:32:08;7.00;99.90
8892;DHT22;4482;54.332;10.118;2023-12-20T00:34:34;7.00;99.90
8892;DHT22;4482;54.332;10.118;2023-12-20T00:37:03;7.10;99.90
8892;DHT22;4482;54.332;10.118;2023-12-20T00:39:29;7.10;99.90
8892;DHT22;4482;54.332;10.118;2023-12-20T00:41:56;7.20;99.90
8892;DHT22;4482;54.332;10.118;2023-12-20T00:44:23;7.20;99.90
8892;DHT22;4482;54.332;10.118;2023-12-20T00:46:49;7.20;99.90
8892;DHT22;4482;54.332;10.118;2023-12-20T00:49:16;7.20;99.90
8892;DHT22;4482;54.332;10.118;2023-12-20T00:51:43;7.20;99.90
8892;DHT22;4482;54.332;10.118;2023-12-20T00:54:11;7.10;99.90
8892;DHT22;4482;54.332;10.118;2023-12-20T00:56:38;7.10;99.90
8892;DHT22;4482;54.332;10.118;2023-12-20T00:59:05;7.10;99.90
8892;DHT22;4482;54.332;10.118;2023-12-20T01:01:35;7.00;99.90
8892;DHT22;4482;54.332;10.118;2023-12-20T01:04:01;7.00;99.90
8892;DHT22;4482;54.332;10.118;2023-12-20T01:06:28;7.00;99.90
8892;DHT22;4482;54.332;10.118;2023-12-20T01:08:55;7.00;99.90
8892;DHT22;4482;54.332;10.118;2023-12-20T01:11:23;7.00;99.90
8892;DHT22;4482;54.332;10.118;2023-12-20T01:13:50;7.30;99.90
8892;DHT22;4482;54.332;10.118;2023-12-20T01:16:16;7.40;99.90
8892;DHT22;4482;54.332;10.118;2023-12-20T01:18:43;7.50;99.90
8892;DHT22;4482;54.332;10.118;2023-12-20T01:21:10;7.60;99.90
8892;DHT22;4482;54.332;10.118;2023-12-20T01:23:37;7.70;99.90
8892;DHT22;4482;54.332;10.118;2023-12-20T01:26:03;7.70;99.90
8892;DHT22;4482;54.332;10.118;2023-12-20T01:28:32;7.70;99.90
8892;DHT22;4482;54.332;10.118;2023-12-20T01:30:58;7.80;99.90
8892;DHT22;4482;54.332;10.118;2023-12-20T01:33:25;7.90;99.90
8892;DHT22;4482;54.332;10.118;2023-12-20T01:35:52;7.90;99.90
8892;DHT22;4482;54.332;10.118;2023-12-20T01:38:18;8.00;99.90
8892;DHT22;4482;54.332;10.118;2023-12-20T01:40:45;7.90;99.90
8892;DHT22;4482;54.332;10.118;2023-12-20T01:43:12;7.90;99.90
8892;DHT22;4482;54.332;10.118;2023-12-20T01:45:40;7.70;99.90
8892;DHT22;4482;54.332;10.118;2023-12-20T01:48:07;7.60;99.90
8892;DHT22;4482;54.332;10.118;2023-12-20T01:50:35;7.40;99.90
8892;DHT22;4482;54.332;10.118;2023-12-20T01:53:02;7.30;99.90
8892;DHT22;4482;54.332;10.118;2023-12-20T01:55:31;7.30;99.90
8892;DHT22;4482;54.332;10.118;2023-12-20T01:57:58;7.30;99.90
8892;DHT22;4482;54.332;10.118;2023-12-20T02:00:26;7.30;99.90
8892;DHT22;4482;54.332;10.118;2023-12-20T02:02:54;7.20;99.90
8892;DHT22;4482;54.332;10.118;2023-12-20T02:05:21;7.30;99.90
8892;DHT22;4482;54.332;10.118;2023-12-20T02:07:48;7.20;99.90
8892;DHT22;4482;54.332;10.118;2023-12-20T02:10:15;7.20;99.90
8892;DHT22;4482;54.332;10.118;2023-12-20T02:12:42;7.20;99.90
8892;DHT22;4482;54.332;10.118;2023-12-20T02:15:08;7.20;99.90
8892;DHT22;4482;54.332;10.118;2023-12-20T02:17:35;7.20;99.90
8892;DHT22;4482;54.332;10.118;2023-12-20T02:20:04;7.20;99.90
8892;DHT22;4482;54.332;10.118;2023-12-20T02:22:33;7.20;99.90
8892;DHT22;4482;54.332;10.118;2023-12-20T02:25:00;7.30;99.90
8892;DHT22;4482;54.332;10.118;2023-12-20T02:27:26;7.20;99.90
8892;DHT22;4482;54.332;10.118;2023-12-20T02:29:54;7.20;99.90
8892;DHT22;4482;54.332;10.118;2023-12-20T02:32:20;7.20;99.90
8892;DHT22;4482;54.332;10.118;2023-12-20T02:34:47;7.30;99.90
8892;DHT22;4482;54.332;10.118;2023-12-20T02:37:15;7.20;99.90
8892;DHT22;4482;54.332;10.118;2023-12-20T02:39:43;7.30;99.90
8892;DHT22;4482;54.332;10.118;2023-12-20T02:42:09;7.30;99.90
8892;DHT22;4482;54.332;10.118;2023-12-20T02:44:36;7.30;99.90
8892;DHT22;4482;54.332;10.118;2023-12-20T02:47:03;7.30;99.90
8892;DHT22;4482;54.332;10.118;2023-12-20T02:49:30;7.30;99.90
8892;DHT22;4482;54.332;10.118;2023-12-20T02:51:56;7.20;99.90
8892;DHT22;4482;54.332;10.118;2023-12-20T02:54:23;7.20;99.90
8892;DHT22;4482;54.332;10.118;2023-12-20T02:56:51;7.20;99.90
8892;DHT22;4482;54.332;10.118;2023-12-20T02:59:18;7.10;99.90
8892;DHT22;4482;54.332;10.118;2023-12-20T03:01:45;7.10;99.90
8892;DHT22;4482;54.332;10.118;2023-12-20T03:04:12;7.10;99.90
8892;DHT22;4482;54.332;10.118;2023-12-20T03:06:38;7.10;99.90
8892;DHT22;4482;54.332;10.118;2023-12-20T03:09:05;7.00;99.90
8892;DHT22;4482;54.332;10.118;2023-12-20T03:11:32;7.10;99.90
8892;DHT22;4482;54.332;10.118;2023-12-20T03:14:00;7.20;99.90
8892;DHT22;4482;54.332;10.118;2023-12-20T03:16:27;7.10;99.90
8892;DHT22;4482;54.332;10.118;2023-12-20T03:18:54;7.10;99.90
8892;DHT22;4482;54.332;10.118;2023-12-20T03:21:20;7.10;99.90
8892;DHT22;4482;54.332;10.118;2023-12-20T03:23:47;7.20;99.90
8892;DHT22;4482;54.332;10.118;2023-12-20T03:26:14;7.20;99.90
8892;DHT22;4482;54.332;10.118;2023-12-20T03:28:40;7.20;99.90
8892;DHT22;4482;54.332;10.118;2023-12-20T03:31:08;7.20;99.90
8892;DHT22;4482;54.332;10.118;2023-12-20T03:33:35;7.30;99.90
8892;DHT22;4482;54.332;10.118;2023-12-20T03:36:02;7.20;99.90
8892;DHT22;4482;54.332;10.118;2023-12-20T18:27:59;5.90;99.90
8892;DHT22;4482;54.332;10.118;2023-12-20T18:30:26;5.90;99.90
8892;DHT22;4482;54.332;10.118;2023-12-20T18:32:53;5.90;99.90
8892;DHT22;4482;54.332;10.118;2023-12-20T18:35:20;5.90;99.90
8892;DHT22;4482;54.332;10.118;2023-12-20T18:37:47;6.00;99.90
8892;DHT22;4482;54.332;10.118;2023-12-20T18:40:13;6.00;99.90
8892;DHT22;4482;54.332;10.118;2023-12-20T18:42:40;6.00;99.90
8892;DHT22;4482;54.332;10.118;2023-12-20T18:45:09;6.00;99.90
8892;DHT22;4482;54.332;10.118;2023-12-20T18:47:36;6.00;99.90
8892;DHT22;4482;54.332;10.118;2023-12-20T18:50:03;6.00;99.90
8892;DHT22;4482;54.332;10.118;2023-12-20T18:52:33;6.00;99.90
8892;DHT22;4482;54.332;10.118;2023-12-20T18:55:00;6.00;99.90
8892;DHT22;4482;54.332;10.118;2023-12-20T18:57:27;6.00;99.90
8892;DHT22;4482;54.332;10.118;2023-12-20T18:59:54;5.90;99.90
8892;DHT22;4482;54.332;10.118;2023-12-20T19:02:22;5.90;99.90
8892;DHT22;4482;54.332;10.118;2023-12-20T19:04:49;5.90;99.90
8892;DHT22;4482;54.332;10.118;2023-12-20T19:07:15;5.90;99.90
8892;DHT22;4482;54.332;10.118;2023-12-20T19:09:42;5.90;99.90
8892;DHT22;4482;54.332;10.118;2023-12-20T19:12:09;5.90;99.90
8892;DHT22;4482;54.332;10.118;2023-12-20T19:14:35;6.00;99.90
8892;DHT22;4482;54.332;10.118;2023-12-20T19:17:02;6.00;99.90
8892;DHT22;4482;54.332;10.118;2023-12-20T19:19:31;6.00;99.90
8892;DHT22;4482;54.332;10.118;2023-12-20T19:21:58;6.10;99.90
8892;DHT22;4482;54.332;10.118;2023-12-20T19:24:25;6.00;99.90
8892;DHT22;4482;54.332;10.118;2023-12-20T19:26:51;6.00;99.90
8892;DHT22;4482;54.332;10.118;2023-12-20T19:29:18;6.00;99.90
8892;DHT22;4482;54.332;10.118;2023-12-20T19:31:45;6.00;99.90
8892;DHT22;4482;54.332;10.118;2023-12-20T19:34:13;6.00;99.90
8892;DHT22;4482;54.332;10.118;2023-12-20T19:36:41;6.00;99.90
8892;DHT22;4482;54.332;10.118;2023-12-20T19:39:07;6.00;99.90
8892;DHT22;4482;54.332;10.118;2023-12-20T19:41:34;6.00;99.90
8892;DHT22;4482;54.332;10.118;2023-12-20T19:44:01;5.90;99.90
8892;DHT22;4482;54.332;10.118;2023-12-20T19:46:28;5.90;99.90
8892;DHT22;4482;54.332;10.118;2023-12-20T19:48:54;5.90;99.90
8892;DHT22;4482;54.332;10.118;2023-12-20T19:51:21;6.00;99.90
8892;DHT22;4482;54.332;10.118;2023-12-20T19:53:50;5.90;99.90
8892;DHT22;4482;54.332;10.118;2023-12-20T19:56:17;5.90;99.90
8892;DHT22;4482;54.332;10.118;2023-12-20T19:58:44;5.90;99.90
8892;DHT22;4482;54.332;10.118;2023-12-20T20:01:10;5.90;99.90
8892;DHT22;4482;54.332;10.118;2023-12-20T20:03:38;5.90;99.90
8892;DHT22;4482;54.332;10.118;2023-12-20T20:06:05;5.90;99.90
8892;DHT22;4482;54.332;10.118;2023-12-20T20:08:31;5.90;99.90
8892;DHT22;4482;54.332;10.118;2023-12-20T20:10:59;5.80;99.90
8892;DHT22;4482;54.332;10.118;2023-12-20T20:13:29;5.90;99.90
8892;DHT22;4482;54.332;10.118;2023-12-20T20:15:56;5.80;99.90
8892;DHT22;4482;54.332;10.118;2023-12-20T20:18:23;5.80;99.90
8892;DHT22;4482;54.332;10.118;2023-12-20T20:20:50;5.80;99.90
8892;DHT22;4482;54.332;10.118;2023-12-20T20:23:16;5.90;99.90
8892;DHT22;4482;54.332;10.118;2023-12-20T20:25:43;5.90;99.90
8892;DHT22;4482;54.332;10.118;2023-12-20T20:28:11;5.90;99.90
8892;DHT22;4482;54.332;10.118;2023-12-20T20:30:38;5.80;99.90
8892;DHT22;4482;54.332;10.118;2023-12-20T20:33:05;5.80;99.90
8892;DHT22;4482;54.332;10.118;2023-12-20T20:35:31;5.80;99.90
8892;DHT22;4482;54.332;10.118;2023-12-20T20:37:58;5.90;99.90
8892;DHT22;4482;54.332;10.118;2023-12-20T20:40:25;5.90;99.90
8892;DHT22;4482;54.332;10.118;2023-12-20T20:42:51;5.90;99.90
8892;DHT22;4482;54.332;10.118;2023-12-20T20:45:19;5.90;99.90
8892;DHT22;4482;54.332;10.118;2023-12-20T20:47:46;5.90;99.90
8892;DHT22;4482;54.332;10.118;2023-12-20T20:50:13;5.90;99.90
8892;DHT22;4482;54.332;10.118;2023-12-20T20:52:40;5.90;99.90
8892;DHT22;4482;54.332;10.118;2023-12-20T20:55:12;5.90;99.90
8892;DHT22;4482;54.332;10.118;2023-12-20T20:57:38;5.90;99.90
8892;DHT22;4482;54.332;10.118;2023-12-20T21:00:06;5.90;99.90
8892;DHT22;4482;54.332;10.118;2023-12-20T21:02:34;5.90;99.90
8892;DHT22;4482;54.332;10.118;2023-12-20T21:05:01;6.00;99.90
8892;DHT22;4482;54.332;10.118;2023-12-20T21:07:31;5.90;99.90
8892;DHT22;4482;54.332;10.118;2023-12-20T21:09:58;5.90;99.90
8892;DHT22;4482;54.332;10.118;2023-12-20T21:12:24;6.00;99.90
8892;DHT22;4482;54.332;10.118;2023-12-20T21:14:53;6.00;99.90
8892;DHT22;4482;54.332;10.118;2023-12-20T21:17:20;6.00;99.90
8892;DHT22;4482;54.332;10.118;2023-12-20T21:19:48;6.10;99.90
8892;DHT22;4482;54.332;10.118;2023-12-20T21:22:14;6.10;99.90
8892;DHT22;4482;54.332;10.118;2023-12-20T21:24:41;6.10;99.90
8892;DHT22;4482;54.332;10.118;2023-12-20T21:27:08;6.00;99.90
8892;DHT22;4482;54.332;10.118;2023-12-20T21:29:34;6.10;99.90
8892;DHT22;4482;54.332;10.118;2023-12-20T21:32:01;6.10;99.90
8892;DHT22;4482;54.332;10.118;2023-12-20T21:34:29;6.10;99.90
8892;DHT22;4482;54.332;10.118;2023-12-20T21:36:57;6.10;99.90
8892;DHT22;4482;54.332;10.118;2023-12-20T21:39:24;6.10;99.90
8892;DHT22;4482;54.332;10.118;2023-12-20T21:41:52;6.20;99.90
8892;DHT22;4482;54.332;10.118;2023-12-20T21:44:20;6.10;99.90
8892;DHT22;4482;54.332;10.118;2023-12-20T21:46:46;6.10;99.90
8892;DHT22;4482;54.332;10.118;2023-12-20T21:49:13;6.20;99.90
8892;DHT22;4482;54.332;10.118;2023-12-20T21:51:40;6.20;99.90
8892;DHT22;4482;54.332;10.118;2023-12-20T21:54:08;6.10;99.90
8892;DHT22;4482;54.332;10.118;2023-12-20T21:56:36;6.20;99.90
8892;DHT22;4482;54.332;10.118;2023-12-20T21:59:03;6.20;99.90
8892;DHT22;4482;54.332;10.118;2023-12-20T22:01:30;6.20;99.90
8892;DHT22;4482;54.332;10.118;2023-12-20T22:03:56;6.20;99.90
8892;DHT22;4482;54.332;10.118;2023-12-20T22:06:23;6.20;99.90
8892;DHT22;4482;54.332;10.118;2023-12-20T22:08:50;6.20;99.90
8892;DHT22;4482;54.332;10.118;2023-12-20T22:11:18;6.30;99.90
8892;DHT22;4482;54.332;10.118;2023-12-20T22:13:44;6.20;99.90
8892;DHT22;4482;54.332;10.118;2023-12-20T22:16:11;6.30;99.90
8892;DHT22;4482;54.332;10.118;2023-12-20T22:18:39;6.30;99.90
8892;DHT22;4482;54.332;10.118;2023-12-20T22:21:06;6.40;99.90
8892;DHT22;4482;54.332;10.118;2023-12-20T22:23:35;6.60;99.90
8892;DHT22;4482;54.332;10.118;2023-12-20T22:26:02;7.00;99.90
8892;DHT22;4482;54.332;10.118;2023-12-20T22:28:31;7.00;99.90
8892;DHT22;4482;54.332;10.118;2023-12-20T22:30:58;7.20;99.90
8892;DHT22;4482;54.332;10.118;2023-12-20T22:33:25;7.20;99.90
8892;DHT22;4482;54.332;10.118;2023-12-20T22:35:52;7.20;99.90
8892;DHT22;4482;54.332;10.118;2023-12-20T22:38:19;7.30;99.90
8892;DHT22;4482;54.332;10.118;2023-12-20T22:40:45;7.20;99.90
8892;DHT22;4482;54.332;10.118;2023-12-20T22:43:12;7.20;99.90
8892;DHT22;4482;54.332;10.118;2023-12-20T22:45:40;7.20;99.90
8892;DHT22;4482;54.332;10.118;2023-12-20T22:48:08;7.10;99.90
8892;DHT22;4482;54.332;10.118;2023-12-20T22:50:34;7.20;99.90
8892;DHT22;4482;54.332;10.118;2023-12-20T22:53:01;7.20;99.90
8892;DHT22;4482;54.332;10.118;2023-12-20T22:55:27;7.30;99.90
8892;DHT22;4482;54.332;10.118;2023-12-20T22:57:53;7.30;99.90
8892;DHT22;4482;54.332;10.118;2023-12-20T23:00:20;7.20;99.90
8892;DHT22;4482;54.332;10.118;2023-12-20T23:02:51;7.20;99.90
8892;DHT22;4482;54.332;10.118;2023-12-20T23:05:18;7.10;99.90
8892;DHT22;4482;54.332;10.118;2023-12-20T23:07:44;7.20;99.90
8892;DHT22;4482;54.332;10.118;2023-12-20T23:10:11;7.10;99.90
8892;DHT22;4482;54.332;10.118;2023-12-20T23:12:38;7.20;99.90
8892;DHT22;4482;54.332;10.118;2023-12-20T23:15:05;7.10;99.90
8892;DHT22;4482;54.332;10.118;2023-12-20T23:17:32;7.10;99.90
8892;DHT22;4482;54.332;10.118;2023-12-20T23:20:00;7.10;99.90
8892;DHT22;4482;54.332;10.118;2023-12-20T23:22:27;7.00;99.90
8892;DHT22;4482;54.332;10.118;2023-12-20T23:24:53;7.00;99.90
8892;DHT22;4482;54.332;10.118;2023-12-20T23:27:20;6.90;99.90
8892;DHT22;4482;54.332;10.118;2023-12-20T23:29:47;6.80;99.90
8892;DHT22;4482;54.332;10.118;2023-12-20T23:32:13;6.90;99.90
8892;DHT22;4482;54.332;10.118;2023-12-20T23:34:40;6.90;99.90
8892;DHT22;4482;54.332;10.118;2023-12-20T23:37:08;6.90;99.90
8892;DHT22;4482;54.332;10.118;2023-12-20T23:39:36;6.80;99.90
8892;DHT22;4482;54.332;10.118;2023-12-20T23:42:03;6.90;99.90
8892;DHT22;4482;54.332;10.118;2023-12-20T23:44:30;6.90;99.90
8892;DHT22;4482;54.332;10.118;2023-12-20T23:46:57;6.90;99.90
8892;DHT22;4482;54.332;10.118;2023-12-20T23:49:23;6.90;99.90
8892;DHT22;4482;54.332;10.118;2023-12-20T23:51:50;6.90;99.90
8892;DHT22;4482;54.332;10.118;2023-12-20T23:54:18;6.90;99.90
8892;DHT22;4482;54.332;10.118;2023-12-20T23:56:46;6.90;99.90
8892;DHT22;4482;54.332;10.118;2023-12-20T23:59:13;6.90;99.90
